Montgomery Regional (Dannelly Field) Airport
KMGM : now visible

Airfield :











YOU CAN JOIN US ON...

 
LOGIN :

Register | Disclaimer

   EN    FR    IT 

 









Legend :    VFR   Marginal VFR   IFR   Intensive IFR   Very Intensive IFR
Visi :
Ceiling :
>= 8 km
>= 3000ft
5 to 8 km
1000 to 3000 ft
1500m to 5 km
500 to 1000 ft
800 to 1500m
200 to 500 ft
< 800m
< 200 ft
Symbols :   Thunderstorms  Fog  Heavy snow  Heavy precipitations  Wind > 20 kt







- Airport Elevation : 221 ft
- IATA code : MGM


KMGM - Montgomery Regional (Dannelly Field)

CURRENT METAR :
  • 161253Z AUTO 23005KT 10SM FEW012 OVC018 18/17 A2978 RMK AO2 RAE03B14E51 SLP081 P0000 T01780167

EXPIRED METARs :
  • 161221Z AUTO 23005KT 9SM -RA BKN018 BKN029 OVC065 18/17 A2978 RMK AO2 RAE03B14 P0000 T01780167
  • 161203Z AUTO 23006KT 10SM SCT013 BKN042 OVC065 18/17 A2978 RMK AO2 RAE03 P0000 T01780167
  • 161153Z AUTO 23007KT 7SM -RA BKN015 BKN041 OVC060 18/16 A2977 RMK AO2 RAB44 SLP080 P0000 60000 70002 T01780161 10183 20178 53005
  • 161111Z AUTO 22010KT 10SM BKN014 OVC070 18/16 A2976 RMK AO2 T01830161
  • 161053Z AUTO 22007KT 10SM BKN015 OVC050 18/16 A2976 RMK AO2 SLP076 T01830161
  • 161046Z AUTO 22007KT 10SM BKN015 OVC050 18/16 A2976 RMK AO2 T01830161
  • 161018Z AUTO 21010KT 10SM FEW015 OVC046 18/16 A2976 RMK AO2 T01780156
  • 160953Z AUTO 22007KT 10SM OVC015 18/16 A2975 RMK AO2 SLP074 T01780156

TAF KMGM
Valid from the 16 at 12:00 until the 17 at 12:00 UTC


161120Z 1612/1712 23008KT P6SM VCSH BKN015 OVC050
FM161300 29008KT P6SM -SHRA OVC007
FM161800 28007KT P6SM OVC015
FM162000 29007KT P6SM BKN025
FM170800 12004KT P6SM OVC015
KZTL FIR / North America



MET'MAP, your aeronautical weather chart ! - Copyright ORBIFLY December 2007 - Disclaimer

ORBIFLY MET'MAP TEAM :

Programming & Development : Alexandra Zaïnal
Concept & Development : Baudouin d'Aumeries
Co-Development & Prog : Marc-Olivier Méhu
Technical & hardware support : Manuel Goepfert

Contact : metmap@orbifly.com




SOURCES & CREDITS :

   NOAA       Earth
Advisory